Time;durP1;ratioP1;P1;durP2;ratioP2;P2;SDS_P1;SDS_P2;PMS_P1;PMS_P2;Temp;Humidity;BMP_temperature;BMP_pressure;BME280_temperature;BME280_humidity;BME280_pressure;Samples;Min_cycle;Max_cycle;Signal;HPM_P1;HPM_P2
2022/09/14 00:01:19;;;;;;;;;;;;;;;22.11;62.49;99715.84;4951600;28;6978;-73
2022/09/14 00:03:45;;;;;;;;;;;;;;;22.08;62.42;99710.66;4970190;28;6796;-72
2022/09/14 00:06:14;;;;;;;;;;;;;;;22.09;62.25;99719.34;4969275;28;6935;-72
2022/09/14 00:08:41;;;;;;;;;;;;;;;22.04;62.11;99707.22;4972245;28;6930;-72
2022/09/14 00:11:13;;;;;;;;;;;;;;;22.02;62.17;99708.97;4984872;28;6792;-73
2022/09/14 00:13:43;;;;;;;;;;;;;;;21.98;61.99;99699.44;4970144;28;6800;-73
2022/09/14 00:16:26;;;;;;;;;;;;;;;21.97;62.04;99695.09;4981590;28;7320;-72
2022/09/14 00:18:56;;;;;;;;;;;;;;;21.94;61.95;99687.31;4961859;28;7020;-72
2022/09/14 00:21:23;;;;;;;;;;;;;;;21.91;61.76;99687.34;4973906;28;6820;-72
2022/09/14 00:23:48;;;;;;;;;;;;;;;21.88;61.68;99677.81;4970953;28;8279;-72
2022/09/14 00:26:18;;;;;;;;;;;;;;;21.85;62.44;99679.59;4966006;28;7019;-72
2022/09/14 00:28:49;;;;;;;;;;;;;;;21.83;62.06;99676.16;4967491;28;7795;-72
2022/09/14 00:31:16;;;;;;;;;;;;;;;21.81;61.80;99683.09;4973581;28;6804;-71
2022/09/14 00:33:46;;;;;;;;;;;;;;;21.80;61.87;99678.75;4970530;28;6804;-72
2022/09/14 00:36:19;;;;;;;;;;;;;;;21.78;61.97;99678.78;4988172;28;7000;-72
2022/09/14 00:38:47;;;;;;;;;;;;;;;21.81;61.69;99683.97;4950792;28;6985;-71
2022/09/14 00:41:18;;;;;;;;;;;;;;;21.81;61.82;99686.59;4969777;28;7318;-71
2022/09/14 00:44:04;;;;;;;;;;;;;;;21.82;61.74;99675.25;4978323;28;6804;-72
2022/09/14 00:46:44;;;;;;;;;;;;;;;21.84;61.81;99670.88;4953879;28;7073;-71
2022/09/14 00:49:14;;;;;;;;;;;;;;;21.87;61.94;99662.19;4980511;28;7268;-72
2022/09/14 00:51:48;;;;;;;;;;;;;;;21.87;61.40;99656.97;4969072;28;6946;-72
2022/09/14 00:54:14;;;;;;;;;;;;;;;21.87;61.55;99649.13;4988090;28;7536;-72
2022/09/14 00:56:39;;;;;;;;;;;;;;;21.85;61.43;99658.72;4969294;28;7062;-72
2022/09/14 00:59:22;;;;;;;;;;;;;;;21.85;61.91;99663.94;4976678;28;8304;-72
2022/09/14 01:01:49;;;;;;;;;;;;;;;21.82;61.38;99661.34;4967049;28;7701;-72
2022/09/14 01:04:16;;;;;;;;;;;;;;;21.78;61.62;99652.72;4969891;28;6784;-71
2022/09/14 01:07:02;;;;;;;;;;;;;;;21.73;61.57;99647.53;4985062;28;6804;-71
2022/09/14 01:09:34;;;;;;;;;;;;;;;21.70;61.85;99633.66;4986917;28;7278;-71
2022/09/14 01:12:28;;;;;;;;;;;;;;;21.66;61.84;99632.81;4984655;28;6808;-72
2022/09/14 01:15:02;;;;;;;;;;;;;;;21.61;61.54;99625.03;4986367;28;6812;-72
2022/09/14 01:17:47;;;;;;;;;;;;;;;21.59;61.72;99628.53;4964626;28;6808;-71
2022/09/14 01:20:36;;;;;;;;;;;;;;;21.55;61.42;99634.66;4968690;28;7007;-72
2022/09/14 01:23:49;;;;;;;;;;;;;;;21.50;61.73;99627.72;4971063;28;6816;-72
2022/09/14 01:26:39;;;;;;;;;;;;;;;21.44;61.67;99630.41;4961315;28;7020;-72
2022/09/14 01:29:32;;;;;;;;;;;;;;;21.42;61.42;99637.34;4984744;28;6807;-72
2022/09/14 01:32:31;;;;;;;;;;;;;;;21.41;61.61;99645.22;4984582;28;6812;-73
2022/09/14 01:35:12;;;;;;;;;;;;;;;21.42;61.94;99639.97;4967412;28;6816;-73
2022/09/14 01:37:46;;;;;;;;;;;;;;;21.45;61.70;99637.34;4983453;28;6804;-72
2022/09/14 01:40:26;;;;;;;;;;;;;;;21.47;61.67;99638.19;4961123;28;7114;-72
2022/09/14 01:43:09;;;;;;;;;;;;;;;21.48;61.50;99639.91;4967102;28;7031;-72
2022/09/14 01:45:43;;;;;;;;;;;;;;;21.50;61.44;99650.34;4967936;28;6812;-73
2022/09/14 01:48:12;;;;;;;;;;;;;;;21.50;61.31;99659.00;4967029;28;6878;-73
2022/09/14 01:50:51;;;;;;;;;;;;;;;21.50;61.45;99664.22;4964592;28;6816;-72
2022/09/14 01:53:48;;;;;;;;;;;;;;;21.50;61.57;99661.63;4968109;28;7014;-72
2022/09/14 01:56:25;;;;;;;;;;;;;;;21.49;61.53;99667.72;4976842;28;6956;-72
2022/09/14 01:59:19;;;;;;;;;;;;;;;21.48;61.85;99665.97;4966323;28;6882;-73
2022/09/14 02:01:56;;;;;;;;;;;;;;;21.46;61.94;99672.97;4965379;28;7036;-74
2022/09/14 02:04:47;;;;;;;;;;;;;;;21.46;61.87;99661.66;4966268;28;6816;-72
2022/09/14 02:07:13;;;;;;;;;;;;;;;21.44;61.78;99647.78;4949209;28;6982;-73
2022/09/14 02:09:39;;;;;;;;;;;;;;;21.38;61.66;99648.69;4967419;28;6799;-72
2022/09/14 02:12:05;;;;;;;;;;;;;;;21.31;61.52;99647.00;4964466;28;7587;-72
2022/09/14 02:14:31;;;;;;;;;;;;;;;21.26;61.24;99648.81;4965810;28;7220;-72
2022/09/14 02:16:57;;;;;;;;;;;;;;;21.20;61.75;99640.16;4984185;28;6872;-72
2022/09/14 02:19:28;;;;;;;;;;;;;;;21.17;61.37;99629.75;4968212;28;7047;-72
2022/09/14 02:21:54;;;;;;;;;;;;;;;21.14;61.69;99628.91;4964480;28;6982;-73
2022/09/14 02:24:19;;;;;;;;;;;;;;;21.09;62.00;99623.75;4965644;28;6784;-72
2022/09/14 02:26:50;;;;;;;;;;;;;;;21.05;61.71;99614.19;4965758;28;6788;-73
2022/09/14 02:29:16;;;;;;;;;;;;;;;21.00;61.88;99611.63;4967809;28;6912;-72
2022/09/14 02:32:02;;;;;;;;;;;;;;;20.97;62.22;99608.22;4967663;28;7225;-73
2022/09/14 02:35:03;;;;;;;;;;;;;;;20.93;62.08;99605.63;4966615;28;7024;-72
2022/09/14 02:37:44;;;;;;;;;;;;;;;20.89;62.32;99609.13;4955078;28;6998;-72
2022/09/14 02:40:36;;;;;;;;;;;;;;;20.89;61.97;99609.13;4986822;28;6804;-73
2022/09/14 02:43:33;;;;;;;;;;;;;;;20.88;62.25;99606.53;4969663;28;6826;-72
2022/09/14 02:46:10;;;;;;;;;;;;;;;20.83;62.19;99593.53;4983992;28;7231;-72
2022/09/14 02:48:47;;;;;;;;;;;;;;;20.80;61.95;99593.53;4986098;28;6792;-72
2022/09/14 02:51:34;;;;;;;;;;;;;;;20.77;62.32;99588.34;4968770;28;7063;-73
2022/09/14 02:54:11;;;;;;;;;;;;;;;20.72;62.39;99590.13;4967956;28;6951;-72
2022/09/14 02:56:36;;;;;;;;;;;;;;;20.70;62.38;99587.50;4981738;28;6864;-72
2022/09/14 02:59:02;;;;;;;;;;;;;;;20.66;62.03;99584.06;4965915;28;6938;-72
2022/09/14 03:01:29;;;;;;;;;;;;;;;20.64;62.21;99583.22;4962773;28;6768;-72
2022/09/14 03:03:54;;;;;;;;;;;;;;;20.60;62.36;99586.72;4965640;28;6785;-72
2022/09/14 03:06:20;;;;;;;;;;;;;;;20.59;62.26;99584.13;4965068;28;7235;-73
2022/09/14 03:08:46;;;;;;;;;;;;;;;20.57;62.37;99581.53;4967965;28;6952;-72
2022/09/14 03:11:12;;;;;;;;;;;;;;;20.56;62.26;99574.59;4967328;28;7046;-72
2022/09/14 03:13:38;;;;;;;;;;;;;;;20.55;62.53;99575.47;4947898;28;7107;-72
2022/09/14 03:16:14;;;;;;;;;;;;;;;20.52;62.28;99568.56;4983742;28;6780;-72
2022/09/14 03:18:40;;;;;;;;;;;;;;;20.51;62.68;99561.59;4950896;28;7114;-72
2022/09/14 03:21:10;;;;;;;;;;;;;;;20.53;62.54;99574.63;4967092;28;6788;-72
2022/09/14 03:23:39;;;;;;;;;;;;;;;20.53;62.54;99574.63;4981044;28;6836;-72
2022/09/14 03:26:11;;;;;;;;;;;;;;;20.54;62.76;99574.63;4981411;28;6970;-72
2022/09/14 03:28:37;;;;;;;;;;;;;;;20.57;62.65;99578.94;4965009;28;7525;-73
2022/09/14 03:31:06;;;;;;;;;;;;;;;20.56;62.64;99574.59;4946037;28;7004;-73
2022/09/14 03:33:32;;;;;;;;;;;;;;;20.57;62.77;99576.34;4980917;28;6800;-72
2022/09/14 03:35:59;;;;;;;;;;;;;;;20.57;62.71;99570.25;4965903;28;6788;-72
2022/09/14 03:38:28;;;;;;;;;;;;;;;20.59;62.65;99566.78;4967830;28;6988;-73
2022/09/14 03:40:58;;;;;;;;;;;;;;;20.60;62.65;99572.84;4964700;28;6991;-71
2022/09/14 03:43:25;;;;;;;;;;;;;;;20.61;62.62;99572.84;4966115;28;7144;-72
2022/09/14 03:45:51;;;;;;;;;;;;;;;20.63;62.93;99565.03;4966474;28;6998;-73
2022/09/14 03:48:16;;;;;;;;;;;;;;;20.63;62.53;99560.66;4982834;28;7917;-72
2022/09/14 03:50:42;;;;;;;;;;;;;;;20.64;62.44;99562.38;4963403;28;7364;-73
2022/09/14 03:53:08;;;;;;;;;;;;;;;20.65;62.39;99556.31;4964376;28;6796;-72
2022/09/14 03:55:33;;;;;;;;;;;;;;;20.62;62.41;99556.34;4966163;28;6792;-72
2022/09/14 03:58:02;;;;;;;;;;;;;;;20.60;62.44;99554.59;4964347;28;6848;-72
2022/09/14 04:00:27;;;;;;;;;;;;;;;20.56;62.48;99556.38;4967270;28;6876;-73
2022/09/14 04:02:53;;;;;;;;;;;;;;;20.51;62.46;99552.94;4947391;28;6935;-72
2022/09/14 04:05:18;;;;;;;;;;;;;;;20.47;62.77;99549.50;4957416;28;7027;-72
2022/09/14 04:07:44;;;;;;;;;;;;;;;20.46;62.09;99547.78;4964479;28;7129;-73
2022/09/14 04:10:10;;;;;;;;;;;;;;;20.44;62.80;99546.03;4966932;28;7325;-72
2022/09/14 04:12:37;;;;;;;;;;;;;;;20.42;62.38;99545.19;4967472;28;7032;-73
2022/09/14 04:15:07;;;;;;;;;;;;;;;20.39;62.99;99541.75;4968726;28;7443;-73
2022/09/14 04:17:33;;;;;;;;;;;;;;;20.38;62.64;99545.22;4971588;28;6816;-72
2022/09/14 04:19:59;;;;;;;;;;;;;;;20.38;63.00;99540.03;4951886;28;7158;-73
2022/09/14 04:22:24;;;;;;;;;;;;;;;20.42;62.98;99540.00;4970617;28;6868;-72
2022/09/14 04:24:50;;;;;;;;;;;;;;;20.43;62.76;99540.00;4984293;28;6964;-72
2022/09/14 04:27:16;;;;;;;;;;;;;;;20.46;62.58;99541.69;4953930;28;7083;-73
2022/09/14 04:29:42;;;;;;;;;;;;;;;20.46;62.94;99541.69;4988382;28;7849;-73
2022/09/14 04:32:07;;;;;;;;;;;;;;;20.43;62.65;99539.13;4969535;28;6959;-73
2022/09/14 04:34:34;;;;;;;;;;;;;;;20.43;62.87;99537.38;4968605;28;7203;-73
2022/09/14 04:37:00;;;;;;;;;;;;;;;20.42;62.88;99537.38;4952304;28;6983;-73
2022/09/14 04:39:27;;;;;;;;;;;;;;;20.38;62.38;99540.03;4947283;28;6987;-72
2022/09/14 04:41:52;;;;;;;;;;;;;;;20.36;62.71;99540.91;4968507;28;6987;-73
2022/09/14 04:44:18;;;;;;;;;;;;;;;20.31;62.75;99540.03;4987177;28;7035;-73
2022/09/14 04:46:44;;;;;;;;;;;;;;;20.28;62.67;99545.28;4987161;28;6772;-73
2022/09/14 04:49:09;;;;;;;;;;;;;;;20.25;63.26;99543.53;4969217;28;7229;-73
2022/09/14 04:51:36;;;;;;;;;;;;;;;20.21;62.96;99534.88;4968324;28;7844;-73
2022/09/14 04:54:05;;;;;;;;;;;;;;;20.20;63.12;99540.13;4975028;28;6796;-73
2022/09/14 04:56:34;;;;;;;;;;;;;;;20.18;63.39;99531.44;4972025;28;7722;-74
2022/09/14 04:59:03;;;;;;;;;;;;;;;20.16;62.81;99536.66;4968781;28;6808;-73
2022/09/14 05:01:33;;;;;;;;;;;;;;;20.14;62.94;99534.94;4984480;28;6972;-73
2022/09/14 05:03:59;;;;;;;;;;;;;;;20.11;63.66;99536.69;4964300;28;6981;-73
2022/09/14 05:06:29;;;;;;;;;;;;;;;20.10;63.48;99534.97;4969733;28;6911;-73
2022/09/14 05:08:55;;;;;;;;;;;;;;;20.11;63.61;99536.69;4950134;28;7020;-73
2022/09/14 05:11:25;;;;;;;;;;;;;;;20.14;63.88;99545.34;4972152;28;7804;-73
2022/09/14 05:13:51;;;;;;;;;;;;;;;20.17;63.31;99534.91;4986284;28;8628;-74
2022/09/14 05:16:21;;;;;;;;;;;;;;;20.19;63.81;99533.19;4967323;28;7179;-73
2022/09/14 05:18:48;;;;;;;;;;;;;;;20.21;63.34;99537.50;4946582;28;7060;-73
2022/09/14 05:21:18;;;;;;;;;;;;;;;20.21;63.35;99528.84;4966675;28;7182;-73
2022/09/14 05:23:44;;;;;;;;;;;;;;;20.22;63.57;99533.16;4944052;28;6980;-73
2022/09/14 05:26:12;;;;;;;;;;;;;;;20.22;63.45;99535.78;4967090;28;6966;-74
2022/09/14 05:28:38;;;;;;;;;;;;;;;20.21;63.10;99537.50;4984088;28;7237;-73
2022/09/14 05:31:09;;;;;;;;;;;;;;;20.18;63.18;99541.84;4958326;28;6959;-73
2022/09/14 05:33:36;;;;;;;;;;;;;;;20.15;63.22;99541.88;4967864;28;6955;-72
2022/09/14 05:36:06;;;;;;;;;;;;;;;20.10;63.26;99544.50;4968787;28;6784;-72
2022/09/14 05:38:35;;;;;;;;;;;;;;;20.06;63.29;99541.03;4969825;28;6816;-72
2022/09/14 05:41:01;;;;;;;;;;;;;;;20.03;63.06;99543.66;4968552;28;6800;-73
2022/09/14 05:43:28;;;;;;;;;;;;;;;19.99;63.23;99547.16;4972023;28;7186;-73
2022/09/14 05:45:54;;;;;;;;;;;;;;;19.96;63.22;99550.63;4967390;28;6789;-72
2022/09/14 05:48:20;;;;;;;;;;;;;;;19.92;63.27;99550.63;4966902;28;7083;-72
2022/09/14 05:50:45;;;;;;;;;;;;;;;19.87;63.65;99548.03;4963921;28;7037;-73
2022/09/14 05:53:11;;;;;;;;;;;;;;;19.80;63.70;99546.31;4984283;28;6828;-72
2022/09/14 05:55:37;;;;;;;;;;;;;;;19.77;63.47;99549.78;4965592;28;6980;-73
2022/09/14 05:58:03;;;;;;;;;;;;;;;19.73;63.80;99544.59;4985903;28;7126;-72
2022/09/14 06:00:30;;;;;;;;;;;;;;;19.70;63.53;99533.34;4966103;28;7174;-73
2022/09/14 06:02:55;;;;;;;;;;;;;;;19.67;63.89;99538.56;4966568;28;6804;-73
2022/09/14 06:05:21;;;;;;;;;;;;;;;19.65;64.12;99529.03;4965859;28;6784;-73
2022/09/14 06:07:52;;;;;;;;;;;;;;;19.63;63.73;99531.63;4966786;28;7197;-73
2022/09/14 06:10:19;;;;;;;;;;;;;;;19.63;64.09;99533.38;4947477;28;7190;-73
2022/09/14 06:12:45;;;;;;;;;;;;;;;19.62;63.72;99540.31;4967331;28;6800;-72
2022/09/14 06:15:11;;;;;;;;;;;;;;;19.63;64.21;99533.38;4966343;28;6949;-73
2022/09/14 06:17:37;;;;;;;;;;;;;;;19.65;64.05;99539.44;4969110;28;6792;-73
2022/09/14 06:20:06;;;;;;;;;;;;;;;19.67;64.05;99541.19;4966644;28;7475;-73
2022/09/14 06:22:32;;;;;;;;;;;;;;;19.69;63.97;99530.75;4985228;28;6812;-74
2022/09/14 06:24:58;;;;;;;;;;;;;;;19.72;64.02;99535.97;4966770;28;7157;-74
2022/09/14 06:27:24;;;;;;;;;;;;;;;19.75;63.95;99538.53;4968566;28;7468;-74
2022/09/14 06:29:52;;;;;;;;;;;;;;;19.76;64.14;99529.88;4958952;28;6987;-73
2022/09/14 06:32:19;;;;;;;;;;;;;;;19.75;64.34;99528.13;4966812;28;6815;-73
2022/09/14 06:34:45;;;;;;;;;;;;;;;19.77;63.70;99522.94;4985078;28;6808;-73
2022/09/14 06:37:11;;;;;;;;;;;;;;;19.75;63.94;99509.06;4983419;28;6772;-73
2022/09/14 06:39:38;;;;;;;;;;;;;;;19.75;63.95;99519.47;4973489;28;6788;-73
2022/09/14 06:42:04;;;;;;;;;;;;;;;19.75;64.29;99515.16;4966206;28;6792;-73
2022/09/14 06:44:29;;;;;;;;;;;;;;;19.75;64.15;99517.75;4965097;28;6812;-73
2022/09/14 06:46:55;;;;;;;;;;;;;;;19.74;64.08;99515.13;4984224;28;6948;-73
2022/09/14 06:49:22;;;;;;;;;;;;;;;19.71;63.87;99510.84;4983461;28;6867;-73
2022/09/14 06:51:49;;;;;;;;;;;;;;;19.71;63.97;99510.84;4965254;28;7134;-73
2022/09/14 06:54:17;;;;;;;;;;;;;;;19.67;63.86;99506.50;4971269;28;6792;-73
2022/09/14 06:56:45;;;;;;;;;;;;;;;19.66;64.00;99507.38;4983641;28;7063;-73
2022/09/14 06:59:15;;;;;;;;;;;;;;;19.62;63.82;99511.72;4966776;28;6864;-73
2022/09/14 07:01:43;;;;;;;;;;;;;;;19.56;63.83;99507.41;4967847;28;6965;-74
2022/09/14 07:04:09;;;;;;;;;;;;;;;19.53;63.82;99507.44;4966553;28;7059;-73
2022/09/14 07:06:50;;;;;;;;;;;;;;;19.49;64.35;99508.28;4966579;28;7157;-74
2022/09/14 07:09:18;;;;;;;;;;;;;;;19.50;64.31;99511.78;4966384;28;7883;-73
2022/09/14 07:11:44;;;;;;;;;;;;;;;19.47;63.87;99507.44;4976550;28;7099;-73
2022/09/14 07:14:11;;;;;;;;;;;;;;;19.45;63.92;99509.19;4975141;28;6968;-73
2022/09/14 07:16:38;;;;;;;;;;;;;;;19.46;63.95;99507.44;4966770;28;6975;-74
2022/09/14 07:19:09;;;;;;;;;;;;;;;19.45;64.42;99506.59;4965756;28;7134;-74
2022/09/14 07:21:35;;;;;;;;;;;;;;;19.44;64.45;99510.06;4965562;28;6879;-74
2022/09/14 07:24:01;;;;;;;;;;;;;;;19.49;63.78;99510.03;4965764;28;6780;-74
2022/09/14 07:26:39;;;;;;;;;;;;;;;19.50;63.71;99514.38;4984427;28;6946;-74
2022/09/14 07:29:09;;;;;;;;;;;;;;;19.52;63.77;99521.28;4967452;28;7794;-74
2022/09/14 07:31:41;;;;;;;;;;;;;;;19.53;63.75;99507.44;4966656;28;6871;-73
2022/09/14 07:34:08;;;;;;;;;;;;;;;19.53;64.05;99507.44;4971252;28;6848;-74
2022/09/14 07:36:35;;;;;;;;;;;;;;;19.54;64.21;99511.75;4984801;28;6776;-74
2022/09/14 07:39:04;;;;;;;;;;;;;;;19.56;64.14;99515.22;4956896;28;7021;-73
2022/09/14 07:41:32;;;;;;;;;;;;;;;19.56;63.92;99516.97;4955496;28;6796;-74
2022/09/14 07:44:01;;;;;;;;;;;;;;;19.57;63.65;99513.50;4965330;28;7198;-75
2022/09/14 07:46:31;;;;;;;;;;;;;;;19.55;64.21;99517.81;4962413;28;7421;-74
2022/09/14 07:49:01;;;;;;;;;;;;;;;19.52;64.09;99500.50;4968029;28;6796;-74
2022/09/14 07:51:29;;;;;;;;;;;;;;;19.51;63.70;99498.78;4970809;28;7714;-74
2022/09/14 07:53:56;;;;;;;;;;;;;;;19.52;63.89;99494.44;4969494;28;6824;-74
2022/09/14 07:56:21;;;;;;;;;;;;;;;19.51;64.17;99498.78;4970053;28;6804;-74
2022/09/14 07:58:48;;;;;;;;;;;;;;;19.53;64.36;99497.03;4988598;28;6781;-74
2022/09/14 08:01:18;;;;;;;;;;;;;;;19.59;64.61;99509.13;4987590;28;6792;-74
2022/09/14 08:03:47;;;;;;;;;;;;;;;19.64;64.54;99503.94;4944660;28;7101;-74
2022/09/14 08:06:21;;;;;;;;;;;;;;;19.70;64.52;99512.56;4985544;28;6797;-74
2022/09/14 08:08:50;;;;;;;;;;;;;;;19.73;63.75;99500.41;4970460;28;7070;-74
2022/09/14 08:11:29;;;;;;;;;;;;;;;19.77;63.77;99513.41;4971150;28;6954;-74
2022/09/14 08:13:58;;;;;;;;;;;;;;;19.77;63.85;99518.59;4971980;28;6955;-74
2022/09/14 08:16:27;;;;;;;;;;;;;;;19.80;64.23;99516.00;4971012;28;7099;-74
2022/09/14 08:18:57;;;;;;;;;;;;;;;19.83;63.62;99525.50;4943724;28;6848;-74
2022/09/14 08:21:25;;;;;;;;;;;;;;;19.84;63.77;99528.09;4987519;28;7061;-74
2022/09/14 08:23:51;;;;;;;;;;;;;;;19.85;63.77;99518.59;4954096;28;7043;-74
2022/09/14 08:26:20;;;;;;;;;;;;;;;19.87;63.52;99524.63;4955702;28;7067;-74
2022/09/14 08:28:48;;;;;;;;;;;;;;;19.88;63.86;99521.16;4979395;28;6868;-74
2022/09/14 08:31:17;;;;;;;;;;;;;;;19.87;63.26;99523.75;4983018;28;6970;-74
2022/09/14 08:33:50;;;;;;;;;;;;;;;19.87;63.33;99521.16;4971235;28;6972;-74
2022/09/14 08:36:19;;;;;;;;;;;;;;;19.85;63.27;99526.38;4969642;28;6973;-73
2022/09/14 08:38:44;;;;;;;;;;;;;;;19.84;63.37;99522.91;4981294;28;6800;-74
2022/09/14 08:41:32;;;;;;;;;;;;;;;19.87;63.68;99523.75;4985962;28;8231;-74
2022/09/14 08:44:12;;;;;;;;;;;;;;;19.87;63.66;99514.25;4987685;28;7185;-75
2022/09/14 08:46:52;;;;;;;;;;;;;;;19.87;63.42;99516.84;4987723;28;7148;-75
2022/09/14 08:49:47;;;;;;;;;;;;;;;19.86;63.89;99530.72;4971756;28;6784;-74
2022/09/14 08:52:28;;;;;;;;;;;;;;;19.84;63.50;99532.44;4969075;28;7237;-74
2022/09/14 08:55:01;;;;;;;;;;;;;;;19.85;63.25;99537.63;4974956;28;6808;-74
2022/09/14 08:57:33;;;;;;;;;;;;;;;19.88;63.54;99544.56;4967246;28;6800;-74
2022/09/14 09:00:17;;;;;;;;;;;;;;;19.90;63.55;99542.81;4973111;28;7023;-75
2022/09/14 09:03:48;;;;;;;;;;;;;;;19.91;63.56;99538.50;4969029;28;11520;-74
2022/09/14 09:06:28;;;;;;;;;;;;;;;19.91;63.78;99539.34;4984275;28;7008;-74
2022/09/14 09:09:33;;;;;;;;;;;;;;;19.93;63.45;99541.94;4970521;28;7136;-74
2022/09/14 09:12:00;;;;;;;;;;;;;;;19.95;63.67;99542.81;4985104;28;7012;-74
2022/09/14 09:14:58;;;;;;;;;;;;;;;19.98;63.68;99550.59;4969256;28;7032;-74
2022/09/14 09:17:32;;;;;;;;;;;;;;;20.00;63.39;99543.69;4978347;28;7024;-74
2022/09/14 09:20:19;;;;;;;;;;;;;;;20.03;63.55;99548.88;4988534;28;7224;-74
2022/09/14 09:23:06;;;;;;;;;;;;;;;20.04;63.17;99548.00;4984592;28;7211;-73
2022/09/14 09:26:05;;;;;;;;;;;;;;;20.05;63.57;99556.66;4984683;28;6819;-74
2022/09/14 09:28:33;;;;;;;;;;;;;;;20.04;63.53;99545.38;4969141;28;7217;-74
2022/09/14 09:31:09;;;;;;;;;;;;;;;20.05;63.00;99546.28;4956059;28;7038;-74
2022/09/14 09:33:34;;;;;;;;;;;;;;;20.07;63.12;99549.72;4985353;28;6988;-74
2022/09/14 09:36:00;;;;;;;;;;;;;;;20.08;63.47;99541.88;4967027;28;7004;-73
2022/09/14 09:38:28;;;;;;;;;;;;;;;20.12;63.43;99527.13;4958687;28;7138;-74
2022/09/14 09:41:06;;;;;;;;;;;;;;;20.16;63.32;99525.38;4967819;28;6792;-74
2022/09/14 09:43:32;;;;;;;;;;;;;;;20.18;63.37;99526.22;4984685;28;6883;-74
2022/09/14 09:46:05;;;;;;;;;;;;;;;20.21;63.46;99526.25;4952709;28;7051;-74
2022/09/14 09:48:36;;;;;;;;;;;;;;;20.24;63.53;99513.19;4984718;28;6776;-75
2022/09/14 09:51:22;;;;;;;;;;;;;;;20.25;63.49;99520.13;4983494;28;6933;-75
2022/09/14 09:53:52;;;;;;;;;;;;;;;20.26;63.34;99530.53;4969782;28;7293;-74
2022/09/14 09:56:27;;;;;;;;;;;;;;;20.31;63.68;99516.63;4967851;28;6956;-74
2022/09/14 09:58:53;;;;;;;;;;;;;;;20.34;63.25;99514.88;4968972;28;6804;-75
2022/09/14 10:01:33;;;;;;;;;;;;;;;20.37;63.87;99511.41;4968015;28;7204;-74
2022/09/14 10:04:15;;;;;;;;;;;;;;;20.39;63.32;99513.13;4968449;28;6816;-75
2022/09/14 10:06:52;;;;;;;;;;;;;;;20.40;63.04;99514.84;4969651;28;7237;-74
2022/09/14 10:09:22;;;;;;;;;;;;;;;20.40;63.54;99521.78;4957435;28;7272;-74
2022/09/14 10:12:01;;;;;;;;;;;;;;;20.43;63.30;99526.09;4966241;28;7385;-74
2022/09/14 10:14:33;;;;;;;;;;;;;;;20.43;63.08;99516.56;4967659;28;6804;-75
2022/09/14 10:17:20;;;;;;;;;;;;;;;20.43;63.17;99506.16;4985485;28;6935;-74
2022/09/14 10:19:52;;;;;;;;;;;;;;;20.42;63.38;99494.00;4969318;28;6997;-74
2022/09/14 10:22:31;;;;;;;;;;;;;;;20.42;63.50;99487.94;4967369;28;7269;-74
2022/09/14 10:25:02;;;;;;;;;;;;;;;20.40;63.29;99483.63;4965751;28;6808;-74
2022/09/14 10:27:57;;;;;;;;;;;;;;;20.42;63.33;99477.53;4969343;28;6979;-74
2022/09/14 10:30:32;;;;;;;;;;;;;;;20.45;63.64;99480.97;4968551;28;6812;-74
2022/09/14 10:33:07;;;;;;;;;;;;;;;20.49;63.42;99469.66;4966801;28;7260;-74
2022/09/14 10:36:19;;;;;;;;;;;;;;;20.52;63.42;99471.38;4980739;28;6804;-74
2022/09/14 10:39:07;;;;;;;;;;;;;;;20.53;63.33;99470.50;4965533;28;6983;-75
2022/09/14 10:42:35;;;;;;;;;;;;;;;20.59;63.37;99483.47;4966218;28;6812;-74
2022/09/14 10:45:19;;;;;;;;;;;;;;;20.64;63.29;99502.50;4937702;28;6812;-74
2022/09/14 10:48:18;;;;;;;;;;;;;;;20.66;63.21;99503.34;4983004;28;6804;-74
2022/09/14 10:50:56;;;;;;;;;;;;;;;20.70;63.34;99498.16;4965412;28;6995;-74
2022/09/14 10:53:39;;;;;;;;;;;;;;;20.70;62.86;99498.16;4973850;28;7523;-74
2022/09/14 10:56:23;;;;;;;;;;;;;;;20.66;63.05;99503.34;4949065;28;7149;-74
2022/09/14 10:59:18;;;;;;;;;;;;;;;20.63;63.17;99502.56;4983117;28;6808;-74
2022/09/14 11:02:30;;;;;;;;;;;;;;;20.56;62.39;99498.25;4968386;28;7370;-74
2022/09/14 11:05:29;;;;;;;;;;;;;;;20.47;62.90;99483.56;4982198;28;6800;-74
2022/09/14 11:08:19;;;;;;;;;;;;;;;20.44;63.02;99476.66;4966213;28;6800;-74
2022/09/14 11:11:23;;;;;;;;;;;;;;;20.42;62.97;99474.94;4984776;28;6800;-74
2022/09/14 11:14:01;;;;;;;;;;;;;;;20.39;62.92;99471.47;4928278;28;7046;-74
2022/09/14 11:16:58;;;;;;;;;;;;;;;20.38;62.92;99469.75;4984314;28;6983;-74
2022/09/14 11:19:51;;;;;;;;;;;;;;;20.38;63.37;99469.75;4964411;28;6828;-74
2022/09/14 11:23:44;;;;;;;;;;;;;;;20.37;63.31;99464.56;4951263;28;7087;-74
2022/09/14 11:26:34;;;;;;;;;;;;;;;20.34;63.15;99470.63;4906181;29;7365;-77
2022/09/14 11:29:25;;;;;;;;;;;;;;;20.34;63.27;99462.00;4968094;28;6804;-76
2022/09/14 11:32:03;;;;;;;;;;;;;;;20.36;63.63;99463.69;4958983;28;7015;-77
2022/09/14 11:34:44;;;;;;;;;;;;;;;20.39;63.44;99463.69;4970296;28;6800;-77
2022/09/14 11:37:15;;;;;;;;;;;;;;;20.46;63.47;99463.63;4975936;28;7430;-77
2022/09/14 11:40:01;;;;;;;;;;;;;;;20.50;63.26;99465.34;4971734;28;8027;-77
2022/09/14 11:42:38;;;;;;;;;;;;;;;20.48;63.21;99467.94;4969665;28;6816;-77
2022/09/14 11:45:35;;;;;;;;;;;;;;;20.45;63.08;99467.09;4971988;28;6807;-77
2022/09/14 11:48:31;;;;;;;;;;;;;;;20.38;62.07;99472.38;4972950;28;7001;-76
2022/09/14 11:51:18;;;;;;;;;;;;;;;20.28;62.24;99480.22;4976622;28;7011;-77
2022/09/14 11:53:45;;;;;;;;;;;;;;;20.18;62.15;99485.50;4971092;28;6804;-77
2022/09/14 11:56:32;;;;;;;;;;;;;;;20.07;62.68;99476.91;4963843;28;6977;-76
2022/09/14 11:59:05;;;;;;;;;;;;;;;20.00;62.91;99478.69;4971016;28;6960;-78
2022/09/14 12:01:37;;;;;;;;;;;;;;;19.96;62.66;99484.75;4972371;28;7364;-77
2022/09/14 12:04:14;;;;;;;;;;;;;;;19.90;62.72;99479.56;4965920;28;7004;-77
2022/09/14 12:06:47;;;;;;;;;;;;;;;19.81;62.48;99483.94;4983364;28;6891;-76
2022/09/14 12:09:16;;;;;;;;;;;;;;;19.73;62.58;99482.22;4961977;28;7250;-76
2022/09/14 12:11:57;;;;;;;;;;;;;;;19.64;62.21;99491.78;4986701;28;7234;-77
2022/09/14 12:14:23;;;;;;;;;;;;;;;19.56;62.75;99491.81;4972254;28;7803;-76
2022/09/14 12:17:30;;;;;;;;;;;;;;;19.51;62.92;99492.69;4987673;28;7031;-77
2022/09/14 12:20:41;;;;;;;;;;;;;;;19.44;62.36;99497.06;4970869;28;6804;-76
2022/09/14 12:23:22;;;;;;;;;;;;;;;19.41;62.69;99490.13;4964299;28;7181;-76
2022/09/14 12:26:01;;;;;;;;;;;;;;;19.38;62.41;99482.34;4989004;28;6871;-76
2022/09/14 12:28:39;;;;;;;;;;;;;;;19.36;62.21;99485.81;4987141;28;7018;-76
2022/09/14 12:31:07;;;;;;;;;;;;;;;19.34;62.86;99479.78;4984804;28;7019;-77
2022/09/14 12:33:33;;;;;;;;;;;;;;;19.30;62.20;99481.50;4985018;28;7245;-75
2022/09/14 12:36:06;;;;;;;;;;;;;;;19.28;62.51;99489.28;4986602;28;6935;-76
2022/09/14 12:38:41;;;;;;;;;;;;;;;19.26;62.42;99496.22;4982846;28;6844;-76
2022/09/14 12:41:09;;;;;;;;;;;;;;;19.23;62.19;99492.78;4983474;28;6796;-76
2022/09/14 12:43:35;;;;;;;;;;;;;;;19.20;62.09;99474.59;4986372;28;8261;-76
2022/09/14 12:46:04;;;;;;;;;;;;;;;19.18;62.02;99469.41;4983721;28;6973;-77
2022/09/14 12:48:47;;;;;;;;;;;;;;;19.16;62.06;99455.56;4953453;28;7033;-76
2022/09/14 12:51:28;;;;;;;;;;;;;;;19.17;62.75;99459.88;4966422;28;6977;-77
2022/09/14 12:54:08;;;;;;;;;;;;;;;19.18;62.04;99451.22;4985996;28;6956;-76
2022/09/14 12:57:06;;;;;;;;;;;;;;;19.20;62.21;99449.47;4984614;28;7316;-77
2022/09/14 12:59:47;;;;;;;;;;;;;;;19.22;62.03;99444.28;4986435;28;6800;-76
2022/09/14 13:03:00;;;;;;;;;;;;;;;19.21;62.50;99443.41;4968053;28;6982;-76
2022/09/14 13:05:30;;;;;;;;;;;;;;;19.17;61.69;99456.41;4986967;28;6998;-77
2022/09/14 13:07:56;;;;;;;;;;;;;;;19.14;62.08;99462.50;4968900;28;6947;-76
2022/09/14 13:10:34;;;;;;;;;;;;;;;19.11;61.60;99460.78;4956728;28;7003;-76
2022/09/14 13:13:06;;;;;;;;;;;;;;;19.08;61.74;99462.50;4969058;28;6820;-76
2022/09/14 13:15:49;;;;;;;;;;;;;;;19.04;62.32;99453.84;4970082;28;6800;-76
2022/09/14 13:18:18;;;;;;;;;;;;;;;19.04;61.88;99463.41;4954605;28;7183;-76
2022/09/14 13:20:57;;;;;;;;;;;;;;;19.01;61.71;99462.50;4965598;28;6980;-75
2022/09/14 13:23:32;;;;;;;;;;;;;;;18.99;61.85;99448.63;4966409;28;7699;-76
2022/09/14 13:26:06;;;;;;;;;;;;;;;18.96;62.22;99450.38;4985645;28;6995;-77
2022/09/14 13:28:32;;;;;;;;;;;;;;;18.92;62.00;99452.09;4982828;28;6812;-76
2022/09/14 13:31:00;;;;;;;;;;;;;;;18.88;62.11;99463.38;4966313;28;6787;-76
2022/09/14 13:33:28;;;;;;;;;;;;;;;18.88;62.30;99450.38;4967849;28;6800;-76
2022/09/14 13:35:59;;;;;;;;;;;;;;;18.88;62.33;99448.69;4972689;28;7051;-77